createdAt,value
2019-01-31T00:02:52.433Z,-7.40
2019-01-31T00:06:05.884Z,-7.40
2019-01-31T00:09:15.377Z,-7.40
2019-01-31T00:12:01.535Z,-7.40
2019-01-31T00:15:11.055Z,-7.40
2019-01-31T00:18:20.744Z,-7.40
2019-01-31T00:21:12.394Z,-7.40
2019-01-31T00:24:18.733Z,-7.40
2019-01-31T00:27:02.594Z,-7.50
2019-01-31T00:30:25.381Z,-7.40
2019-01-31T00:33:19.914Z,-7.50
2019-01-31T00:36:16.043Z,-7.50
2019-01-31T00:39:30.754Z,-7.50
2019-01-31T00:42:25.611Z,-7.50
2019-01-31T00:45:29.293Z,-7.60
2019-01-31T00:48:15.183Z,-7.70
2019-01-31T00:51:15.867Z,-7.70
2019-01-31T00:53:54.924Z,-7.80
2019-01-31T00:56:56.831Z,-7.80
2019-01-31T00:59:45.649Z,-7.80
2019-01-31T01:02:59.444Z,-7.80
2019-01-31T01:06:16.574Z,-7.80
2019-01-31T01:09:07.555Z,-7.90
2019-01-31T01:12:10.760Z,-8.00
2019-01-31T01:14:59.640Z,-8.00
2019-01-31T01:17:52.321Z,-8.10
2019-01-31T01:20:50.423Z,-8.10
2019-01-31T01:23:41.866Z,-8.00
2019-01-31T01:26:25.599Z,-8.00
2019-01-31T01:29:31.265Z,-8.10
2019-01-31T01:32:23.005Z,-8.00
2019-01-31T01:35:27.047Z,-8.00
2019-01-31T01:38:28.716Z,-8.10
2019-01-31T01:41:41.060Z,-8.00
2019-01-31T01:44:23.955Z,-8.00
2019-01-31T01:47:00.918Z,-8.00
2019-01-31T01:49:50.649Z,-8.00
2019-01-31T01:52:55.638Z,-8.00
2019-01-31T01:56:21.406Z,-8.00
2019-01-31T01:59:10.554Z,-8.00
2019-01-31T02:02:04.445Z,-8.00
2019-01-31T02:05:16.695Z,-8.00
2019-01-31T02:08:04.424Z,-8.00
2019-01-31T02:11:18.112Z,-8.00
2019-01-31T02:14:11.641Z,-8.00
2019-01-31T02:17:19.753Z,-7.90
2019-01-31T02:20:36.701Z,-7.90
2019-01-31T02:23:40.994Z,-7.90
2019-01-31T02:26:37.277Z,-8.00
2019-01-31T02:29:37.734Z,-8.00
2019-01-31T02:33:02.708Z,-7.90
2019-01-31T02:36:14.141Z,-8.00
2019-01-31T02:39:43.121Z,-7.80
2019-01-31T02:42:25.438Z,-7.90
2019-01-31T02:45:17.263Z,-7.90
2019-01-31T02:48:09.694Z,-7.90
2019-01-31T02:50:46.634Z,-7.90
2019-01-31T02:53:54.740Z,-7.90
2019-01-31T02:56:53.420Z,-7.90
2019-01-31T03:00:22.087Z,-7.80
2019-01-31T03:03:32.596Z,-7.80
2019-01-31T03:06:25.215Z,-7.80
2019-01-31T03:09:37.846Z,-7.80
2019-01-31T03:12:53.714Z,-7.80
2019-01-31T03:16:04.605Z,-7.80
2019-01-31T03:19:11.750Z,-7.80
2019-01-31T03:22:01.198Z,-7.80
2019-01-31T03:25:03.489Z,-7.80
2019-01-31T03:28:16.394Z,-7.80
2019-01-31T03:31:20.196Z,-7.90
2019-01-31T03:34:39.990Z,-8.00
2019-01-31T03:37:46.377Z,-8.10
2019-01-31T03:41:12.240Z,-8.10
2019-01-31T03:44:27.932Z,-8.20
2019-01-31T03:47:34.169Z,-8.20
2019-01-31T03:50:41.405Z,-8.20
2019-01-31T03:53:30.322Z,-8.20
2019-01-31T03:56:38.411Z,-8.30
2019-01-31T03:59:33.029Z,-8.30
2019-01-31T04:02:57.075Z,-8.20
2019-01-31T04:05:50.397Z,-8.30
2019-01-31T04:08:20.382Z,-8.20
2019-01-31T04:10:50.597Z,-8.30
2019-01-31T04:13:20.508Z,-8.20
2019-01-31T04:15:50.389Z,-8.20
2019-01-31T04:18:20.278Z,-8.20
2019-01-31T04:20:51.205Z,-8.20
2019-01-31T04:23:21.179Z,-8.10
2019-01-31T04:25:51.074Z,-8.20
2019-01-31T04:28:21.441Z,-8.20
2019-01-31T04:30:51.400Z,-8.20
2019-01-31T04:33:21.302Z,-8.30
2019-01-31T04:35:51.225Z,-8.30
2019-01-31T04:38:21.151Z,-8.30
2019-01-31T04:40:51.045Z,-8.20
2019-01-31T04:43:21.004Z,-8.20
2019-01-31T04:45:50.869Z,-8.20
2019-01-31T04:48:20.727Z,-8.30
2019-01-31T04:50:50.757Z,-8.30
2019-01-31T04:53:20.583Z,-8.30
2019-01-31T04:55:50.602Z,-8.50
2019-01-31T04:58:20.545Z,-8.40
2019-01-31T05:00:50.537Z,-8.50
2019-01-31T05:03:20.418Z,-8.60
2019-01-31T05:05:50.333Z,-8.60
2019-01-31T05:08:20.221Z,-8.60
2019-01-31T05:10:50.120Z,-8.60
2019-01-31T05:13:20.397Z,-8.60
2019-01-31T05:15:50.250Z,-8.60
2019-01-31T05:18:20.170Z,-8.60
2019-01-31T05:20:50.111Z,-8.60
2019-01-31T05:23:20.071Z,-8.60
2019-01-31T05:25:49.895Z,-8.60
2019-01-31T05:28:20.288Z,-8.60
2019-01-31T05:30:50.155Z,-8.60
2019-01-31T05:33:20.069Z,-8.60
2019-01-31T05:35:50.011Z,-8.70
2019-01-31T05:38:19.911Z,-8.60
2019-01-31T05:40:55.513Z,-8.60
2019-01-31T05:43:21.978Z,-8.60
2019-01-31T05:45:51.885Z,-8.50
2019-01-31T05:48:21.737Z,-8.50
2019-01-31T05:50:51.647Z,-8.40
2019-01-31T05:53:21.627Z,-8.40
2019-01-31T05:55:51.469Z,-8.40
2019-01-31T05:58:21.506Z,-8.40
2019-01-31T06:00:51.426Z,-8.40
2019-01-31T06:03:21.334Z,-8.40
2019-01-31T06:05:51.394Z,-8.40
2019-01-31T06:08:21.252Z,-8.30
2019-01-31T06:10:51.173Z,-8.30
2019-01-31T06:13:21.333Z,-8.20
2019-01-31T06:15:51.222Z,-8.10
2019-01-31T06:18:21.129Z,-8.10
2019-01-31T06:20:51.050Z,-8.10
2019-01-31T06:23:20.962Z,-8.10
2019-01-31T06:25:50.858Z,-8.20
2019-01-31T06:28:20.825Z,-8.20
2019-01-31T06:30:51.021Z,-8.10
2019-01-31T06:33:20.903Z,-8.10
2019-01-31T06:35:50.814Z,-8.10
2019-01-31T06:38:20.742Z,-8.00
2019-01-31T06:40:50.614Z,-8.10
2019-01-31T06:43:20.548Z,-8.10
2019-01-31T06:45:50.590Z,-8.10
2019-01-31T06:48:20.483Z,-8.10
2019-01-31T06:50:50.406Z,-8.10
2019-01-31T06:53:20.322Z,-8.10
2019-01-31T06:55:50.238Z,-8.00
2019-01-31T06:58:20.122Z,-8.00
2019-01-31T07:00:50.084Z,-8.00
2019-01-31T07:03:20.005Z,-8.00
2019-01-31T07:05:49.891Z,-8.00
2019-01-31T07:08:19.762Z,-7.80
2019-01-31T07:10:49.721Z,-7.80
2019-01-31T07:13:19.684Z,-7.80
2019-01-31T07:15:49.620Z,-7.80
2019-01-31T07:18:19.834Z,-7.70
2019-01-31T07:20:49.831Z,-7.60
2019-01-31T07:23:19.770Z,-7.60
2019-01-31T07:25:49.646Z,-7.60
2019-01-31T07:28:19.536Z,-7.60
2019-01-31T07:30:49.412Z,-7.60
2019-01-31T07:33:19.587Z,-7.50
2019-01-31T07:35:52.074Z,-7.50
2019-01-31T07:38:21.009Z,-7.50
2019-01-31T07:40:50.924Z,-7.50
2019-01-31T07:43:20.818Z,-7.50
2019-01-31T07:45:50.790Z,-7.50
2019-01-31T07:48:21.146Z,-7.50
2019-01-31T07:50:51.083Z,-7.40
2019-01-31T07:53:21.285Z,-7.40
2019-01-31T07:55:51.296Z,-7.40
2019-01-31T07:58:21.362Z,-7.30
2019-01-31T08:00:51.606Z,-7.30
2019-01-31T08:03:21.859Z,-7.20
2019-01-31T08:05:52.010Z,-7.20
2019-01-31T08:08:21.897Z,-7.10
2019-01-31T08:10:51.899Z,-7.20
2019-01-31T08:13:21.833Z,-7.20
2019-01-31T08:15:51.769Z,-7.10
2019-01-31T08:18:21.989Z,-7.00
2019-01-31T08:20:51.885Z,-7.10
2019-01-31T08:23:21.789Z,-7.10
2019-01-31T08:25:51.656Z,-7.00
2019-01-31T08:28:21.679Z,-6.90
2019-01-31T08:30:51.571Z,-6.90
2019-01-31T08:33:21.827Z,-6.90
2019-01-31T08:35:51.750Z,-6.90
2019-01-31T08:38:21.650Z,-6.80
2019-01-31T08:40:51.554Z,-6.80
2019-01-31T08:43:21.511Z,-6.70
2019-01-31T08:45:51.332Z,-6.70
2019-01-31T08:48:21.317Z,-6.60
2019-01-31T08:50:51.654Z,-6.60
2019-01-31T08:53:21.558Z,-6.60
2019-01-31T08:55:51.473Z,-6.60
2019-01-31T08:58:21.371Z,-6.60
2019-01-31T09:00:51.382Z,-6.40
2019-01-31T09:03:21.317Z,-6.50
2019-01-31T09:05:51.834Z,-6.40
2019-01-31T09:08:21.683Z,-6.40
2019-01-31T09:10:51.632Z,-6.40
2019-01-31T09:13:21.510Z,-6.30
2019-01-31T09:15:51.611Z,-6.30
2019-01-31T09:18:21.469Z,-6.10
2019-01-31T09:21:22.033Z,-6.20
2019-01-31T09:24:44.789Z,-6.20
2019-01-31T09:28:07.592Z,-6.10
2019-01-31T09:30:49.001Z,-6.10
2019-01-31T09:34:00.657Z,-6.20
2019-01-31T09:37:08.972Z,-6.10
2019-01-31T09:39:57.361Z,-6.10
2019-01-31T09:42:49.468Z,-6.10
2019-01-31T09:45:52.034Z,-6.10
2019-01-31T09:49:17.673Z,-6.00
2019-01-31T09:52:30.120Z,-6.00
2019-01-31T09:55:48.272Z,-5.80
2019-01-31T09:58:47.552Z,-5.90
2019-01-31T10:01:53.136Z,-6.00
2019-01-31T10:04:34.224Z,-6.00
2019-01-31T10:07:28.939Z,-6.00
2019-01-31T10:10:19.484Z,-5.90
2019-01-31T10:13:25.284Z,-5.90
2019-01-31T10:16:37.919Z,-5.80
2019-01-31T10:19:40.904Z,-5.90
2019-01-31T10:22:57.571Z,-5.80
2019-01-31T10:26:04.685Z,-5.80
2019-01-31T10:29:12.607Z,-5.80
2019-01-31T10:32:01.859Z,-5.80
2019-01-31T10:35:22.302Z,-5.80
2019-01-31T10:38:15.755Z,-5.80
2019-01-31T10:41:32.435Z,-5.70
2019-01-31T10:44:32.431Z,-5.70
2019-01-31T10:47:49.071Z,-5.70
2019-01-31T10:50:50.735Z,-5.60
2019-01-31T10:53:53.400Z,-5.60
2019-01-31T10:56:52.122Z,-5.60
2019-01-31T10:59:49.888Z,-5.50
2019-01-31T11:02:52.909Z,-5.50
2019-01-31T11:05:46.592Z,-5.40
2019-01-31T11:09:02.145Z,-5.40
2019-01-31T11:12:19.168Z,-5.30
2019-01-31T11:15:41.615Z,-5.30
2019-01-31T11:18:21.241Z,-5.30
2019-01-31T11:21:28.486Z,-5.20
2019-01-31T11:24:39.663Z,-5.30
2019-01-31T11:27:33.306Z,-5.20
2019-01-31T11:30:42.298Z,-5.20
2019-01-31T11:33:59.316Z,-5.20
2019-01-31T11:37:12.114Z,-5.20
2019-01-31T11:40:26.642Z,-5.20
2019-01-31T11:43:45.346Z,-5.10
2019-01-31T11:46:46.305Z,-5.10
2019-01-31T11:49:59.760Z,-5.20
2019-01-31T11:52:53.935Z,-5.10
2019-01-31T11:55:52.540Z,-5.10
2019-01-31T11:59:00.801Z,-5.10
2019-01-31T12:01:31.031Z,-5.20
2019-01-31T12:04:12.884Z,-5.20
2019-01-31T12:06:42.819Z,-5.20
2019-01-31T12:09:17.006Z,-5.20
2019-01-31T12:11:47.009Z,-5.10
2019-01-31T12:14:16.891Z,-5.10
2019-01-31T12:16:46.921Z,-5.00
2019-01-31T12:19:16.936Z,-5.10
2019-01-31T12:21:46.871Z,-5.00
2019-01-31T12:24:16.948Z,-5.00
2019-01-31T12:26:47.229Z,-4.90
2019-01-31T12:29:17.432Z,-4.90
2019-01-31T12:31:47.375Z,-5.00
2019-01-31T12:34:17.416Z,-4.90
2019-01-31T12:36:47.314Z,-4.90
2019-01-31T12:39:17.448Z,-5.00
2019-01-31T12:41:47.707Z,-5.00
2019-01-31T12:44:17.561Z,-5.00
2019-01-31T12:46:47.544Z,-5.00
2019-01-31T12:49:17.521Z,-5.00
2019-01-31T12:51:47.548Z,-4.90
2019-01-31T12:54:17.566Z,-4.90
2019-01-31T12:56:47.740Z,-4.90
2019-01-31T12:59:17.732Z,-5.00
2019-01-31T13:01:47.631Z,-4.90
2019-01-31T13:04:20.365Z,-4.90
2019-01-31T13:06:49.301Z,-4.90
2019-01-31T13:09:19.431Z,-4.90
2019-01-31T13:11:49.761Z,-4.90
2019-01-31T13:14:19.662Z,-4.80
2019-01-31T13:16:49.590Z,-4.90
2019-01-31T13:19:19.612Z,-4.80
2019-01-31T13:21:49.599Z,-4.90
2019-01-31T13:24:19.586Z,-4.80
2019-01-31T13:26:49.688Z,-4.70
2019-01-31T13:29:19.577Z,-4.70
2019-01-31T13:31:49.544Z,-4.70
2019-01-31T13:34:19.419Z,-4.70
2019-01-31T13:36:50.483Z,-4.60
2019-01-31T13:39:20.753Z,-4.60
2019-01-31T13:41:51.157Z,-4.60
2019-01-31T13:44:23.035Z,-4.50
2019-01-31T13:46:53.041Z,-4.50
2019-01-31T13:49:22.949Z,-4.50
2019-01-31T13:51:52.878Z,-4.50
2019-01-31T13:54:22.769Z,-4.50
2019-01-31T13:56:53.036Z,-4.50
2019-01-31T13:59:22.972Z,-4.50
2019-01-31T14:01:52.811Z,-4.50
2019-01-31T14:04:22.768Z,-4.40
2019-01-31T14:06:52.670Z,-4.40
2019-01-31T14:09:22.512Z,-4.40
2019-01-31T14:11:52.899Z,-4.40
2019-01-31T14:14:22.787Z,-4.40
2019-01-31T14:16:52.747Z,-4.40
2019-01-31T14:19:22.659Z,-4.40
2019-01-31T14:21:52.612Z,-4.40
2019-01-31T14:24:22.508Z,-4.40
2019-01-31T14:26:52.753Z,-4.40
2019-01-31T14:29:22.651Z,-4.40
2019-01-31T14:31:52.542Z,-4.40
2019-01-31T14:34:22.449Z,-4.40
2019-01-31T14:36:52.535Z,-4.40
2019-01-31T14:39:22.824Z,-4.40
2019-01-31T14:41:53.264Z,-4.30
2019-01-31T14:44:23.131Z,-4.30
2019-01-31T14:46:53.024Z,-4.30
2019-01-31T14:49:22.930Z,-4.30
2019-01-31T14:51:52.797Z,-4.30
2019-01-31T14:54:22.687Z,-4.30
2019-01-31T14:56:52.615Z,-4.30
2019-01-31T14:59:22.890Z,-4.30
2019-01-31T15:01:52.797Z,-4.30
2019-01-31T15:04:22.714Z,-4.30
2019-01-31T15:06:52.640Z,-4.30
2019-01-31T15:09:22.645Z,-4.30
2019-01-31T15:11:52.772Z,-4.30
2019-01-31T15:14:31.462Z,-4.20
2019-01-31T15:16:54.523Z,-4.20
2019-01-31T15:19:24.496Z,-4.20
2019-01-31T15:21:54.369Z,-4.20
2019-01-31T15:24:24.292Z,-4.20
2019-01-31T15:26:54.214Z,-4.10
2019-01-31T15:29:24.425Z,-4.10
2019-01-31T15:31:54.256Z,-4.10
2019-01-31T15:34:24.199Z,-4.10
2019-01-31T15:36:54.129Z,-4.10
2019-01-31T15:39:23.998Z,-4.00
2019-01-31T15:41:54.198Z,-4.00
2019-01-31T15:44:24.468Z,-4.00
2019-01-31T15:46:54.362Z,-4.00
2019-01-31T15:49:24.572Z,-4.00
2019-01-31T15:51:54.561Z,-4.00
2019-01-31T15:54:24.674Z,-3.90
2019-01-31T15:56:54.580Z,-3.90
2019-01-31T15:59:24.936Z,-3.90
2019-01-31T16:01:55.001Z,-3.90
2019-01-31T16:04:24.926Z,-3.90
2019-01-31T16:06:54.835Z,-3.80
2019-01-31T16:09:24.823Z,-3.80
2019-01-31T16:11:54.784Z,-3.80
2019-01-31T16:14:25.059Z,-3.80
2019-01-31T16:16:54.946Z,-3.70
2019-01-31T16:19:24.863Z,-3.70
2019-01-31T16:21:54.707Z,-3.70
2019-01-31T16:24:24.624Z,-3.70
2019-01-31T16:26:54.549Z,-3.60
2019-01-31T16:29:24.444Z,-3.60
2019-01-31T16:31:54.310Z,-3.60
2019-01-31T16:34:24.251Z,-3.50
2019-01-31T16:36:54.287Z,-3.50
2019-01-31T16:39:24.136Z,-3.50
2019-01-31T16:41:54.202Z,-3.50
2019-01-31T16:44:24.190Z,-3.50
2019-01-31T16:46:54.157Z,-3.40
2019-01-31T16:49:24.126Z,-3.40
2019-01-31T16:51:54.130Z,-3.40
2019-01-31T16:54:24.022Z,-3.40
2019-01-31T16:56:54.019Z,-3.40
2019-01-31T16:59:24.312Z,-3.30
2019-01-31T17:01:54.273Z,-3.30
2019-01-31T17:04:24.312Z,-3.30
2019-01-31T17:06:54.206Z,-3.30
2019-01-31T17:09:24.176Z,-3.20
2019-01-31T17:11:54.227Z,-3.30
2019-01-31T17:14:24.131Z,-3.20
2019-01-31T17:16:54.457Z,-3.20
2019-01-31T17:19:24.412Z,-3.10
2019-01-31T17:21:54.294Z,-3.10
2019-01-31T17:24:24.201Z,-3.20
2019-01-31T17:26:54.114Z,-3.20
2019-01-31T17:29:24.016Z,-3.20
2019-01-31T17:31:53.924Z,-3.20
2019-01-31T17:34:24.386Z,-3.20
2019-01-31T17:36:54.388Z,-3.20
2019-01-31T17:39:24.272Z,-3.20
2019-01-31T17:41:54.267Z,-3.20
2019-01-31T17:44:24.126Z,-3.20
2019-01-31T17:46:54.041Z,-3.20
2019-01-31T17:49:24.177Z,-3.10
2019-01-31T17:51:54.377Z,-3.10
2019-01-31T17:54:24.261Z,-3.10
2019-01-31T17:56:54.197Z,-3.10
2019-01-31T17:59:24.426Z,-3.10
2019-01-31T18:01:55.447Z,-3.10
2019-01-31T18:04:25.690Z,-3.20
2019-01-31T18:06:55.715Z,-3.20
2019-01-31T18:09:25.740Z,-3.20
2019-01-31T18:11:55.677Z,-3.20
2019-01-31T18:14:25.571Z,-3.20
2019-01-31T18:16:55.634Z,-3.20
2019-01-31T18:19:25.951Z,-3.20
2019-01-31T18:21:55.857Z,-3.20
2019-01-31T18:24:25.750Z,-3.20
2019-01-31T18:26:55.676Z,-3.20
2019-01-31T18:29:25.585Z,-3.20
2019-01-31T18:31:55.521Z,-3.20
2019-01-31T18:34:25.855Z,-3.10
2019-01-31T18:36:55.708Z,-3.20
2019-01-31T18:39:25.617Z,-3.20
2019-01-31T18:41:55.525Z,-3.20
2019-01-31T18:44:25.416Z,-3.20
2019-01-31T18:46:55.394Z,-3.20
2019-01-31T18:49:25.289Z,-3.20
2019-01-31T18:51:55.156Z,-3.20
2019-01-31T18:54:25.147Z,-3.20
2019-01-31T18:56:55.095Z,-3.20
2019-01-31T18:59:24.973Z,-3.20
2019-01-31T19:01:54.875Z,-3.20
2019-01-31T19:04:24.936Z,-3.30
2019-01-31T19:06:54.922Z,-3.20
2019-01-31T19:09:24.799Z,-3.20
2019-01-31T19:11:54.716Z,-3.10
2019-01-31T19:14:24.589Z,-3.10
2019-01-31T19:16:54.560Z,-3.20
2019-01-31T19:19:24.739Z,-3.20
2019-01-31T19:21:54.675Z,-3.10
2019-01-31T19:24:25.634Z,-3.10
2019-01-31T19:26:55.555Z,-3.10
2019-01-31T19:29:26.037Z,-3.10
2019-01-31T19:31:56.066Z,-3.20
2019-01-31T19:34:26.129Z,-3.20
2019-01-31T19:36:56.265Z,-3.20
2019-01-31T19:39:26.303Z,-3.20
2019-01-31T19:41:57.573Z,-3.10
2019-01-31T19:44:27.604Z,-3.10
2019-01-31T19:46:57.942Z,-3.20
2019-01-31T19:49:27.892Z,-3.20
2019-01-31T19:51:57.770Z,-3.10
2019-01-31T19:54:27.695Z,-3.10
2019-01-31T19:56:57.632Z,-3.10
2019-01-31T19:59:27.708Z,-3.10
2019-01-31T20:01:57.976Z,-3.10
2019-01-31T20:04:27.879Z,-3.10
2019-01-31T20:06:57.903Z,-3.10
2019-01-31T20:09:29.339Z,-3.10
2019-01-31T20:11:59.313Z,-3.10
2019-01-31T20:14:29.298Z,-3.10
2019-01-31T20:16:59.575Z,-3.10
2019-01-31T20:19:30.091Z,-3.10
2019-01-31T20:21:59.945Z,-3.10
2019-01-31T20:24:29.872Z,-3.20
2019-01-31T20:26:59.842Z,-3.10
2019-01-31T20:29:29.707Z,-3.20
2019-01-31T20:32:00.054Z,-3.20
2019-01-31T20:34:30.078Z,-3.20
2019-01-31T20:36:59.956Z,-3.20
2019-01-31T20:39:29.829Z,-3.20
2019-01-31T20:41:59.914Z,-3.20
2019-01-31T20:44:29.820Z,-3.20
2019-01-31T20:47:00.075Z,-3.10
2019-01-31T20:49:30.051Z,-3.10
2019-01-31T20:52:00.079Z,-3.10
2019-01-31T20:54:30.138Z,-3.20
2019-01-31T20:57:00.037Z,-3.20
2019-01-31T20:59:29.955Z,-3.10
2019-01-31T21:02:00.053Z,-3.10
2019-01-31T21:04:30.070Z,-3.10
2019-01-31T21:06:59.967Z,-3.10
2019-01-31T21:09:29.853Z,-3.10
2019-01-31T21:11:59.861Z,-3.10
2019-01-31T21:14:29.729Z,-3.10
2019-01-31T21:16:59.626Z,-3.10
2019-01-31T21:19:30.743Z,-3.10
2019-01-31T21:22:00.802Z,-3.10
2019-01-31T21:24:30.706Z,-3.10
2019-01-31T21:27:00.721Z,-3.10
2019-01-31T21:29:30.704Z,-3.10
2019-01-31T21:32:00.585Z,-3.10
2019-01-31T21:34:30.535Z,-3.10
2019-01-31T21:37:00.453Z,-3.10
2019-01-31T21:39:30.345Z,-3.10
2019-01-31T21:42:00.506Z,-3.10
2019-01-31T21:44:30.395Z,-3.10
2019-01-31T21:47:03.223Z,-3.10
2019-01-31T21:49:31.957Z,-3.00
2019-01-31T21:52:01.885Z,-3.00
2019-01-31T21:54:31.786Z,-3.00
2019-01-31T21:57:01.695Z,-3.00
2019-01-31T21:59:31.617Z,-3.00
2019-01-31T22:02:01.747Z,-2.90
2019-01-31T22:04:31.686Z,-2.90
2019-01-31T22:07:01.600Z,-2.90
2019-01-31T22:09:31.457Z,-2.90
2019-01-31T22:12:01.348Z,-2.90
2019-01-31T22:14:31.279Z,-2.90
2019-01-31T22:17:01.394Z,-2.90
2019-01-31T22:19:31.319Z,-2.90
2019-01-31T22:22:01.219Z,-2.90
2019-01-31T22:24:31.138Z,-2.90
2019-01-31T22:27:01.091Z,-2.90
2019-01-31T22:29:30.970Z,-2.90
2019-01-31T22:32:00.845Z,-2.90
2019-01-31T22:34:31.019Z,-2.90
2019-01-31T22:37:00.887Z,-2.80
2019-01-31T22:39:30.885Z,-2.80
2019-01-31T22:42:00.793Z,-2.80
2019-01-31T22:44:30.704Z,-2.80
2019-01-31T22:47:00.688Z,-2.80
2019-01-31T22:49:30.670Z,-2.80
2019-01-31T22:52:00.559Z,-2.80
2019-01-31T22:54:30.576Z,-2.70
2019-01-31T22:57:00.551Z,-2.70
2019-01-31T22:59:30.582Z,-2.70
2019-01-31T23:02:06.855Z,-2.70
2019-01-31T23:04:36.759Z,-2.70
2019-01-31T23:07:06.794Z,-2.70
2019-01-31T23:09:36.818Z,-2.70
2019-01-31T23:12:06.886Z,-2.70
2019-01-31T23:14:36.936Z,-2.70
2019-01-31T23:17:07.205Z,-2.70
2019-01-31T23:19:37.204Z,-2.70
2019-01-31T23:22:07.163Z,-2.70
2019-01-31T23:24:37.172Z,-2.60
2019-01-31T23:27:07.129Z,-2.60
2019-01-31T23:29:37.031Z,-2.60
2019-01-31T23:32:07.654Z,-2.70
2019-01-31T23:34:38.019Z,-2.70
2019-01-31T23:37:08.023Z,-2.60
2019-01-31T23:39:37.915Z,-2.60
2019-01-31T23:42:07.768Z,-2.60
2019-01-31T23:44:37.730Z,-2.60
2019-01-31T23:47:07.634Z,-2.60
2019-01-31T23:49:37.789Z,-2.60
2019-01-31T23:52:07.857Z,-2.60
2019-01-31T23:54:37.837Z,-2.60
2019-01-31T23:57:07.962Z,-2.60
2019-01-31T23:59:37.801Z,-2.60
